Time;durP1;ratioP1;P1;durP2;ratioP2;P2;SDS_P1;SDS_P2;PMS_P1;PMS_P2;Temp;Humidity;BMP_temperature;BMP_pressure;BME280_temperature;BME280_humidity;BME280_pressure;Samples;Min_cycle;Max_cycle;Signal;HPM_P1;HPM_P2
2023/08/17 00:00:46;;;;;;;19.23;11.07;;;;;;;22.72;100.00;100134.41;5138552;28;20051;-56
2023/08/17 00:03:12;;;;;;;15.43;11.68;;;;;;;22.65;100.00;100156.91;5139040;28;20302;-53
2023/08/17 00:05:38;;;;;;;14.23;10.85;;;;;;;22.70;100.00;100169.63;5138505;28;20051;-51
2023/08/17 00:08:04;;;;;;;13.32;10.55;;;;;;;22.67;100.00;100176.84;5138899;27;20047;-50
2023/08/17 00:10:31;;;;;;;18.27;12.32;;;;;;;22.64;100.00;100177.69;5138384;28;20051;-50
2023/08/17 00:12:57;;;;;;;17.45;12.00;;;;;;;22.58;100.00;100179.38;5138475;28;20138;-51
2023/08/17 00:15:23;;;;;;;18.05;11.75;;;;;;;22.43;100.00;100184.41;5138640;28;20419;-50
2023/08/17 00:17:49;;;;;;;16.67;11.90;;;;;;;22.48;100.00;100195.09;5138543;28;20061;-55
2023/08/17 00:20:16;;;;;;;14.23;11.15;;;;;;;22.42;100.00;100193.97;5138597;28;20047;-56
2023/08/17 00:22:42;;;;;;;22.48;12.98;;;;;;;22.49;100.00;100198.66;5138321;28;20055;-53
2023/08/17 00:25:09;;;;;;;17.80;11.15;;;;;;;22.38;100.00;100192.44;5138605;28;20150;-50
2023/08/17 00:27:35;;;;;;;14.18;11.18;;;;;;;22.42;100.00;100202.34;5138215;28;20051;-56
2023/08/17 00:30:01;;;;;;;15.00;11.93;;;;;;;22.39;100.00;100197.63;5138566;28;20138;-55
2023/08/17 00:32:27;;;;;;;14.38;11.60;;;;;;;22.37;100.00;100200.03;5138050;28;20047;-57
2023/08/17 00:34:53;;;;;;;13.93;12.43;;;;;;;22.38;100.00;100198.81;5138610;28;20052;-55
2023/08/17 00:37:19;;;;;;;16.95;12.38;;;;;;;22.34;100.00;100200.09;5137982;27;20141;-53
2023/08/17 00:39:45;;;;;;;19.83;11.88;;;;;;;22.28;100.00;100200.56;5138430;28;20104;-51
2023/08/17 00:42:11;;;;;;;18.50;12.38;;;;;;;22.36;100.00;100208.81;5138245;28;20138;-52
2023/08/17 00:44:37;;;;;;;16.02;12.32;;;;;;;22.27;100.00;100209.38;5138120;28;20057;-52
2023/08/17 00:47:04;;;;;;;16.15;12.10;;;;;;;22.28;100.00;100208.94;5136869;27;20047;-52
2023/08/17 00:49:32;;;;;;;16.08;11.75;;;;;;;22.26;100.00;100218.97;5137814;28;20051;-53
2023/08/17 00:51:58;;;;;;;15.57;12.75;;;;;;;22.23;100.00;100212.19;5138033;28;20382;-55
2023/08/17 00:54:27;;;;;;;16.55;12.65;;;;;;;22.21;100.00;100213.81;5137655;28;20050;-56
2023/08/17 00:56:53;;;;;;;16.75;12.30;;;;;;;22.21;100.00;100213.81;5138130;28;20137;-54
2023/08/17 00:59:19;;;;;;;15.60;12.02;;;;;;;22.18;100.00;100209.88;5137772;28;20301;-56
2023/08/17 01:01:47;;;;;;;18.05;12.52;;;;;;;22.18;100.00;100206.28;5138042;28;20146;-52
2023/08/17 01:04:13;;;;;;;17.02;12.75;;;;;;;22.15;100.00;100212.66;5137635;28;20058;-55
2023/08/17 01:06:39;;;;;;;16.83;13.38;;;;;;;22.14;100.00;100209.09;5138076;28;20147;-55
2023/08/17 01:09:06;;;;;;;18.30;12.70;;;;;;;22.09;100.00;100206.75;5137786;27;20082;-55
2023/08/17 01:11:36;;;;;;;17.27;12.15;;;;;;;22.04;100.00;100202.44;5137687;28;20047;-55
2023/08/17 01:14:05;;;;;;;18.45;13.23;;;;;;;22.07;100.00;100214.78;5137725;28;20127;-57
2023/08/17 01:16:35;;;;;;;14.25;12.70;;;;;;;22.01;100.00;100211.63;5137566;28;20062;-50
2023/08/17 01:19:07;;;;;;;18.38;12.18;;;;;;;22.01;100.00;100211.63;5137745;28;20057;-51
2023/08/17 01:21:41;;;;;;;18.27;13.52;;;;;;;21.99;100.00;100216.06;5137316;28;20416;-51
2023/08/17 01:24:08;;;;;;;18.45;12.82;;;;;;;22.00;100.00;100212.84;5137786;28;20054;-51
2023/08/17 01:26:34;;;;;;;19.98;13.13;;;;;;;22.02;100.00;100218.00;5137262;28;20184;-57
2023/08/17 01:29:00;;;;;;;17.10;13.25;;;;;;;21.98;100.00;100209.69;5137751;28;20100;-57
2023/08/17 01:31:35;;;;;;;16.85;11.77;;;;;;;21.97;100.00;100208.09;5137202;28;20137;-54
2023/08/17 01:34:07;;;;;;;21.00;13.63;;;;;;;21.97;100.00;100204.53;5137056;28;20402;-53
2023/08/17 01:36:38;;;;;;;16.58;12.95;;;;;;;21.95;100.00;100212.50;5137273;28;20050;-55
2023/08/17 01:39:05;;;;;;;15.35;13.13;;;;;;;21.95;100.00;100213.31;5137202;27;20374;-51
2023/08/17 01:41:32;;;;;;;16.83;12.75;;;;;;;21.90;100.00;100219.34;5137460;28;20092;-56
2023/08/17 01:44:00;;;;;;;18.13;12.52;;;;;;;21.89;100.00;100214.19;5137182;28;20055;-50
2023/08/17 01:46:31;;;;;;;17.45;13.63;;;;;;;21.84;100.00;100212.66;5137495;28;20064;-51
2023/08/17 01:48:57;;;;;;;15.93;12.38;;;;;;;21.75;100.00;100212.34;5137063;28;20446;-56
2023/08/17 01:51:23;;;;;;;17.48;13.43;;;;;;;21.82;100.00;100206.69;5137467;28;20078;-55
2023/08/17 01:53:49;;;;;;;17.90;15.27;;;;;;;21.73;100.00;100204.41;5136939;28;20107;-58
2023/08/17 01:56:15;;;;;;;18.48;13.35;;;;;;;21.74;100.00;100200.41;5137417;28;20439;-51
2023/08/17 01:58:42;;;;;;;15.98;12.82;;;;;;;21.77;100.00;100202.34;5139866;27;20130;-55
2023/08/17 02:01:07;;;;;;;22.05;12.93;;;;;;;21.74;100.00;100205.97;5140474;28;20480;-54
2023/08/17 02:03:33;;;;;;;19.25;12.68;;;;;;;21.73;100.00;100206.41;5140901;28;20051;-54
2023/08/17 02:05:59;;;;;;;17.27;13.73;;;;;;;21.67;100.00;100196.91;5140436;28;20362;-55
2023/08/17 02:08:25;;;;;;;16.10;12.25;;;;;;;21.65;100.00;100204.88;5140741;27;20043;-54
2023/08/17 02:10:52;;;;;;;15.00;12.57;;;;;;;21.63;100.00;100202.53;5140532;28;20070;-50
2023/08/17 02:13:18;;;;;;;14.73;12.02;;;;;;;21.61;100.00;100204.91;5140238;28;20404;-56
2023/08/17 02:15:45;;;;;;;12.52;11.23;;;;;;;21.60;100.00;100209.72;5140279;28;20421;-53
2023/08/17 02:18:11;;;;;;;17.08;11.75;;;;;;;21.59;100.00;100205.34;5140695;28;20051;-51
2023/08/17 02:20:36;;;;;;;13.25;11.55;;;;;;;21.63;100.00;100207.31;5140231;28;20057;-54
2023/08/17 02:23:03;;;;;;;15.75;10.85;;;;;;;21.67;100.00;100208.06;5140127;28;20075;-55
2023/08/17 02:25:35;;;;;;;15.25;11.45;;;;;;;21.66;100.00;100207.28;5140096;28;20195;-54
2023/08/17 02:28:01;;;;;;;17.25;11.70;;;;;;;21.65;100.00;100216.84;5140086;28;20047;-55
2023/08/17 02:30:27;;;;;;;19.88;11.70;;;;;;;21.53;100.00;100226.53;5140358;28;20050;-56
2023/08/17 02:32:53;;;;;;;12.80;10.63;;;;;;;21.65;100.00;100227.22;5139941;28;20399;-55
2023/08/17 02:35:19;;;;;;;12.75;10.98;;;;;;;21.60;100.00;100223.66;5140207;28;20409;-56
2023/08/17 02:37:45;;;;;;;14.30;10.95;;;;;;;21.65;100.00;100228.00;5139913;27;20053;-55
2023/08/17 02:40:11;;;;;;;11.70;9.93;;;;;;;21.60;100.00;100225.66;5140136;28;20051;-53
2023/08/17 02:42:39;;;;;;;13.30;10.30;;;;;;;21.65;100.00;100232.78;5140000;28;20051;-56
2023/08/17 02:45:06;;;;;;;15.73;10.52;;;;;;;21.51;100.00;100234.50;5140273;28;20047;-52
2023/08/17 02:47:32;;;;;;;22.92;10.73;;;;;;;21.50;100.00;100232.16;5139886;28;20051;-51
2023/08/17 02:49:58;;;;;;;11.60;9.93;;;;;;;21.48;100.00;100229.75;5140273;28;20186;-52
2023/08/17 02:52:24;;;;;;;15.82;10.63;;;;;;;21.43;100.00;100227.44;5139714;28;20069;-52
2023/08/17 02:54:50;;;;;;;15.52;11.02;;;;;;;21.44;100.00;100237.38;5140095;28;20159;-52
2023/08/17 02:57:17;;;;;;;15.00;10.50;;;;;;;21.44;100.00;100236.59;5139927;28;20058;-55
2023/08/17 02:59:43;;;;;;;15.50;12.20;;;;;;;21.45;100.00;100227.78;5139808;28;20047;-57
2023/08/17 03:02:09;;;;;;;11.73;10.00;;;;;;;21.58;100.00;100226.06;5139885;28;20062;-54
2023/08/17 03:04:35;;;;;;;11.40;9.20;;;;;;;21.63;100.00;100238.00;5139716;28;20051;-51
2023/08/17 03:07:01;;;;;;;13.93;9.98;;;;;;;21.55;100.00;100238.06;5139816;28;20405;-51
2023/08/17 03:09:27;;;;;;;16.83;10.60;;;;;;;21.60;100.00;100237.63;5138577;27;20051;-52
2023/08/17 03:11:53;;;;;;;15.05;10.82;;;;;;;21.62;100.00;100239.97;5139728;28;20198;-51
2023/08/17 03:14:19;;;;;;;19.30;11.05;;;;;;;21.61;100.00;100244.00;5139662;28;20051;-54
2023/08/17 03:16:45;;;;;;;15.88;10.93;;;;;;;21.63;100.00;100238.00;5139790;28;20107;-56
2023/08/17 03:19:11;;;;;;;13.88;10.43;;;;;;;21.63;100.00;100238.78;5139251;28;20043;-56
2023/08/17 03:21:38;;;;;;;15.05;10.85;;;;;;;21.64;100.00;100242.38;5139738;28;20413;-51
2023/08/17 03:24:05;;;;;;;15.32;10.88;;;;;;;21.69;100.00;100239.91;5139201;28;20085;-57
2023/08/17 03:26:31;;;;;;;18.20;11.07;;;;;;;21.74;100.00;100245.06;5139377;28;20047;-51
2023/08/17 03:28:57;;;;;;;14.55;11.25;;;;;;;21.95;100.00;100251.59;5139475;28;20133;-52
2023/08/17 03:31:23;;;;;;;14.98;10.45;;;;;;;22.28;100.00;100248.03;5139287;28;20096;-53
2023/08/17 03:33:49;;;;;;;16.08;10.35;;;;;;;22.56;100.00;100220.94;5139323;28;20051;-56
2023/08/17 03:36:15;;;;;;;22.42;11.27;;;;;;;23.02;100.00;100133.56;5139214;28;20054;-57
2023/08/17 03:38:41;;;;;;;16.55;10.43;;;;;;;23.46;100.00;100010.44;5139323;27;20051;-52
2023/08/17 03:41:08;;;;;;;12.60;9.85;;;;;;;23.81;100.00;99829.69;5139074;28;20051;-51
2023/08/17 03:43:34;;;;;;;11.90;9.95;;;;;;;24.19;100.00;99631.00;5139319;28;20150;-51
2023/08/17 03:46:00;;;;;;;13.38;10.05;;;;;;;24.29;100.00;99452.59;5138926;28;20050;-53
2023/08/17 03:48:26;;;;;;;11.57;9.82;;;;;;;24.63;100.00;99339.72;5139284;28;20368;-56
2023/08/17 03:50:52;;;;;;;13.07;10.18;;;;;;;25.04;100.00;99160.31;5138785;28;20448;-57
2023/08/17 03:53:18;;;;;;;11.05;9.80;;;;;;;25.27;100.00;99033.50;5139155;28;20054;-57
2023/08/17 03:55:46;;;;;;;14.93;10.45;;;;;;;25.48;100.00;98972.06;5138681;28;20082;-56
2023/08/17 03:58:13;;;;;;;13.38;9.32;;;;;;;25.76;100.00;98886.50;5138878;28;20062;-52
2023/08/17 04:00:40;;;;;;;10.55;9.23;;;;;;;26.05;100.00;98840.16;5138918;28;20053;-50
2023/08/17 04:03:06;;;;;;;16.67;8.98;;;;;;;26.28;100.00;98777.56;5138769;28;20061;-54
2023/08/17 04:05:32;;;;;;;17.17;9.02;;;;;;;26.37;100.00;98773.13;5138856;28;20047;-51
2023/08/17 04:08:01;;;;;;;10.07;9.15;;;;;;;26.58;100.00;98769.19;5138451;27;20055;-55
2023/08/17 04:10:27;;;;;;;8.63;7.72;;;;;;;26.41;100.00;98771.69;5138713;28;20401;-57
2023/08/17 04:12:53;;;;;;;13.10;9.43;;;;;;;26.93;100.00;98748.84;5138401;28;20051;-57
2023/08/17 04:15:20;;;;;;;11.70;8.85;;;;;;;27.13;100.00;98763.00;5138865;28;20043;-54
2023/08/17 04:17:46;;;;;;;10.27;9.05;;;;;;;27.39;100.00;98768.75;5138298;28;20188;-56
2023/08/17 04:20:12;;;;;;;10.63;9.50;;;;;;;27.40;100.00;98777.97;5138706;27;20051;-54
2023/08/17 04:22:37;;;;;;;12.80;9.48;;;;;;;27.43;100.00;98768.56;5138204;28;20082;-52
2023/08/17 04:25:04;;;;;;;10.35;8.43;;;;;;;27.75;100.00;98777.94;5138489;28;20069;-51
2023/08/17 04:27:30;;;;;;;11.98;8.10;;;;;;;28.02;100.00;98819.03;5138474;28;20167;-54
2023/08/17 04:29:57;;;;;;;16.05;8.65;;;;;;;28.21;100.00;98815.94;5138347;28;20440;-52
2023/08/17 04:32:24;;;;;;;11.35;8.15;;;;;;;28.36;100.00;98887.88;5138455;28;20381;-51
2023/08/17 04:34:50;;;;;;;9.35;8.38;;;;;;;28.49;100.00;98875.47;5138220;28;20157;-50
2023/08/17 04:37:16;;;;;;;13.75;8.70;;;;;;;28.60;100.00;98934.84;5138410;27;20139;-51
2023/08/17 04:39:43;;;;;;;10.98;8.25;;;;;;;28.86;100.00;98968.75;5138090;28;20439;-51
2023/08/17 04:42:09;;;;;;;15.20;8.10;;;;;;;28.91;100.00;98962.41;5138486;28;20047;-56
2023/08/17 04:44:35;;;;;;;9.25;8.30;;;;;;;28.92;100.00;98978.03;5137860;28;20050;-52
2023/08/17 04:47:01;;;;;;;10.60;7.68;;;;;;;29.11;100.00;99028.59;5138389;28;20042;-51
2023/08/17 04:49:27;;;;;;;13.73;7.75;;;;;;;29.36;100.00;98985.50;5137915;28;20051;-56
2023/08/17 04:51:53;;;;;;;9.95;7.47;;;;;;;29.76;100.00;99097.63;5137998;28;20160;-54
2023/08/17 04:54:20;;;;;;;13.35;7.97;;;;;;;29.75;100.00;99098.88;5137888;28;20108;-57
2023/08/17 04:56:46;;;;;;;10.43;8.63;;;;;;;29.86;100.00;99081.28;5137545;28;20520;-51
2023/08/17 04:59:11;;;;;;;11.07;8.57;;;;;;;29.95;100.00;99103.69;5137984;28;20078;-54
2023/08/17 05:01:38;;;;;;;14.88;7.90;;;;;;;30.01;100.00;99118.66;5137794;28;20061;-54
2023/08/17 05:04:04;;;;;;;8.45;7.03;;;;;;;30.31;100.00;99182.69;5137875;28;20134;-53
2023/08/17 05:06:31;;;;;;;12.43;7.28;;;;;;;30.65;100.00;99243.94;5137671;28;20051;-52
2023/08/17 05:08:57;;;;;;;11.57;7.35;;;;;;;30.75;100.00;99255.06;5137823;27;20047;-55
2023/08/17 05:11:23;;;;;;;9.48;7.43;;;;;;;30.75;100.00;99232.44;5137564;28;20043;-57
2023/08/17 05:13:49;;;;;;;11.98;7.20;;;;;;;31.03;100.00;99301.41;5137685;28;20336;-57
2023/08/17 05:16:15;;;;;;;12.48;7.55;;;;;;;31.38;100.00;99291.88;5137239;28;20120;-54
2023/08/17 05:18:41;;;;;;;19.13;7.50;;;;;;;31.34;100.00;99283.63;5137678;28;20047;-51
2023/08/17 05:21:07;;;;;;;12.77;8.20;;;;;;;31.74;100.00;99361.13;5137213;28;20051;-52
2023/08/17 05:23:34;;;;;;;14.10;8.13;;;;;;;32.04;100.00;99360.81;5137460;28;20051;-54
2023/08/17 05:26:00;;;;;;;16.58;8.15;;;;;;;31.66;100.00;99357.25;5137492;28;20047;-52
2023/08/17 05:28:26;;;;;;;15.02;8.95;;;;;;;31.96;100.00;99413.63;5137320;28;20047;-51
2023/08/17 05:30:53;;;;;;;13.93;8.90;;;;;;;31.92;100.00;99407.41;5137247;28;20047;-55
2023/08/17 05:33:19;;;;;;;15.48;9.38;;;;;;;31.85;100.00;99456.81;5136283;27;20043;-57
2023/08/17 05:35:45;;;;;;;22.60;8.57;;;;;;;32.51;100.00;99455.69;5137333;28;20074;-59
2023/08/17 05:38:11;;;;;;;20.30;9.25;;;;;;;32.74;100.00;99478.47;5136973;27;20083;-56
2023/08/17 05:40:37;;;;;;;15.20;8.20;;;;;;;32.93;100.00;99501.53;5137362;28;20190;-54
2023/08/17 05:43:03;;;;;;;12.43;8.13;;;;;;;33.01;100.00;99509.06;5136937;28;20393;-54
2023/08/17 05:45:29;;;;;;;19.25;8.27;;;;;;;32.43;100.00;99511.38;5137212;28;20047;-54
2023/08/17 05:47:55;;;;;;;16.85;8.27;;;;;;;33.48;100.00;99511.47;5136735;28;20101;-55
2023/08/17 05:50:22;;;;;;;12.98;7.50;;;;;;;33.20;100.00;99517.91;5137219;28;20062;-55
2023/08/17 05:52:48;;;;;;;14.60;6.85;;;;;;;33.34;100.00;99536.00;5136762;28;20491;-52
2023/08/17 05:55:13;;;;;;;11.88;7.35;;;;;;;33.53;100.00;99536.31;5136685;28;20137;-52
2023/08/17 05:57:40;;;;;;;14.85;7.45;;;;;;;33.62;100.00;99535.28;5136979;28;20057;-56
2023/08/17 06:00:08;;;;;;;12.02;7.07;;;;;;;33.50;100.00;99537.34;5136830;28;20047;-54
2023/08/17 06:02:34;;;;;;;13.82;7.07;;;;;;;33.05;100.00;99542.88;5136871;28;20047;-52
2023/08/17 06:05:00;;;;;;;13.07;6.63;;;;;;;34.02;100.00;99536.84;5136529;28;20162;-54
2023/08/17 06:07:26;;;;;;;14.02;7.10;;;;;;;33.96;100.00;99548.22;5136704;27;20316;-54
2023/08/17 06:09:52;;;;;;;11.38;7.53;;;;;;;34.40;100.00;99554.41;5136452;28;20058;-57
2023/08/17 06:12:18;;;;;;;8.73;6.00;;;;;;;34.08;100.00;99543.31;5136793;28;20434;-57
2023/08/17 06:14:45;;;;;;;10.55;6.35;;;;;;;34.40;100.00;99545.88;5136121;28;20112;-56
2023/08/17 06:17:11;;;;;;;8.50;6.13;;;;;;;34.41;100.00;99553.09;5136573;28;20382;-58
2023/08/17 06:19:37;;;;;;;9.23;6.55;;;;;;;34.55;100.00;99546.34;5136206;28;20047;-57
2023/08/17 06:22:03;;;;;;;14.55;5.93;;;;;;;34.20;100.00;99550.56;5136347;28;20047;-60
2023/08/17 06:24:29;;;;;;;13.43;6.05;;;;;;;34.50;100.00;99552.06;5136171;28;20100;-55
2023/08/17 06:26:55;;;;;;;10.38;5.88;;;;;;;34.80;100.00;99557.94;5136134;28;20139;-56
2023/08/17 06:29:20;;;;;;;12.63;5.47;;;;;;;34.75;100.00;99565.19;5136544;28;20055;-53
2023/08/17 06:31:47;;;;;;;6.00;4.68;;;;;;;34.88;100.00;99567.47;5135886;28;20047;-52
2023/08/17 06:34:13;;;;;;;20.08;5.30;;;;;;;35.50;100.00;99570.81;5135835;28;20097;-52
2023/08/17 06:36:39;;;;;;;7.93;4.53;;;;;;;35.66;100.00;99572.03;5136104;28;20134;-51
2023/08/17 06:39:05;;;;;;;9.25;5.35;;;;;;;36.26;100.00;99577.78;5136142;27;20413;-58
2023/08/17 06:41:31;;;;;;;7.55;4.97;;;;;;;36.46;97.77;99582.25;5135952;28;20058;-57
2023/08/17 06:43:57;;;;;;;8.25;5.00;;;;;;;36.13;98.78;99580.50;5136793;27;20137;-55
2023/08/17 06:46:24;;;;;;;11.95;5.55;;;;;;;35.73;99.94;99585.72;5139413;28;20416;-57
2023/08/17 06:48:51;;;;;;;7.65;4.53;;;;;;;36.76;98.68;99581.44;5139927;28;20051;-59
2023/08/17 06:51:16;;;;;;;9.23;4.60;;;;;;;36.39;94.12;99587.75;5139822;28;20051;-58
2023/08/17 06:53:42;;;;;;;8.95;4.55;;;;;;;36.96;92.18;99595.22;5139631;28;20142;-60
2023/08/17 06:56:09;;;;;;;9.70;4.90;;;;;;;37.16;88.39;99605.38;5139475;28;20309;-59
2023/08/17 06:58:35;;;;;;;8.10;4.55;;;;;;;37.61;87.71;99598.28;5139408;28;20137;-58
2023/08/17 07:01:01;;;;;;;6.10;4.68;;;;;;;37.40;86.25;99603.78;5139399;28;20475;-59
2023/08/17 07:03:27;;;;;;;10.88;4.20;;;;;;;36.24;89.46;99596.75;5139039;28;20196;-58
2023/08/17 07:05:54;;;;;;;9.00;4.63;;;;;;;35.16;98.01;99593.03;5139631;28;20096;-55
2023/08/17 07:08:20;;;;;;;7.65;5.05;;;;;;;34.69;92.53;99597.81;5139021;27;20153;-54
2023/08/17 07:10:45;;;;;;;10.98;4.88;;;;;;;34.48;100.00;99580.25;5139522;28;20083;-57
2023/08/17 07:13:11;;;;;;;12.30;4.35;;;;;;;34.77;100.00;99585.38;5139146;28;20047;-58
2023/08/17 07:15:37;;;;;;;9.38;4.95;;;;;;;34.75;100.00;99582.28;5139597;28;20089;-57
2023/08/17 07:18:04;;;;;;;10.05;4.68;;;;;;;34.79;100.00;99587.69;5139064;28;20047;-55
2023/08/17 07:20:30;;;;;;;8.60;4.68;;;;;;;34.93;100.00;99592.31;5139031;28;20316;-57
2023/08/17 07:22:57;;;;;;;11.23;4.90;;;;;;;34.95;100.00;99586.09;5139035;28;20047;-54
2023/08/17 07:25:23;;;;;;;11.15;5.78;;;;;;;35.44;100.00;99577.84;5138887;28;20062;-51
2023/08/17 07:27:50;;;;;;;7.60;4.80;;;;;;;35.09;100.00;99579.34;5139043;28;20134;-53
2023/08/17 07:30:16;;;;;;;5.78;5.10;;;;;;;35.95;95.04;99601.09;5139002;28;20138;-54
2023/08/17 07:32:42;;;;;;;10.15;5.15;;;;;;;35.70;98.42;99598.19;5139120;28;20137;-57
2023/08/17 07:35:08;;;;;;;8.73;5.30;;;;;;;35.71;95.46;99594.03;5138833;28;20105;-59
2023/08/17 07:37:34;;;;;;;16.25;5.68;;;;;;;36.41;91.91;99597.34;5139206;27;20313;-53
2023/08/17 07:40:03;;;;;;;12.55;6.13;;;;;;;36.30;97.64;99594.63;5138768;28;20061;-56
2023/08/17 07:42:29;;;;;;;14.80;6.15;;;;;;;36.81;88.48;99609.16;5138875;28;20072;-54
2023/08/17 07:44:55;;;;;;;8.55;5.20;;;;;;;37.01;90.32;99604.28;5138649;28;20051;-53
2023/08/17 07:47:21;;;;;;;10.32;4.80;;;;;;;35.87;94.95;99598.06;5139105;28;20130;-53
2023/08/17 07:49:47;;;;;;;10.43;5.70;;;;;;;36.45;98.85;99591.34;5138742;28;20054;-53
2023/08/17 07:52:12;;;;;;;13.63;5.53;;;;;;;35.87;92.57;99603.75;5138705;28;20054;-56
2023/08/17 07:54:38;;;;;;;6.97;5.28;;;;;;;35.95;95.76;99601.09;5138348;27;20061;-57
2023/08/17 07:57:05;;;;;;;9.45;5.45;;;;;;;35.84;95.46;99599.13;5138140;28;20055;-58
2023/08/17 07:59:31;;;;;;;12.00;5.75;;;;;;;34.66;100.00;99593.97;5138814;28;20138;-58
2023/08/17 08:01:57;;;;;;;12.55;6.25;;;;;;;35.58;100.00;99591.78;5138446;28;20114;-58
2023/08/17 08:04:23;;;;;;;8.40;5.07;;;;;;;35.90;98.69;99594.16;5138654;28;20047;-58
2023/08/17 08:06:49;;;;;;;9.45;4.80;;;;;;;35.72;97.04;99600.50;5138249;28;20130;-56
2023/08/17 08:09:15;;;;;;;13.18;4.70;;;;;;;34.46;100.00;99580.78;5138607;27;20426;-55
2023/08/17 08:11:40;;;;;;;10.55;4.93;;;;;;;34.47;99.53;99584.41;5138290;28;20336;-51
2023/08/17 08:14:07;;;;;;;9.88;4.90;;;;;;;34.94;100.00;99578.84;5138405;28;20278;-56
2023/08/17 08:16:33;;;;;;;12.73;4.72;;;;;;;34.47;100.00;99576.63;5138030;28;20133;-56
2023/08/17 08:18:59;;;;;;;12.13;4.60;;;;;;;34.72;100.00;99569.09;5138014;28;20107;-56
2023/08/17 08:21:27;;;;;;;9.30;5.00;;;;;;;34.13;100.00;99571.00;5138424;28;20050;-58
2023/08/17 08:23:53;;;;;;;7.47;5.13;;;;;;;35.16;100.00;99575.16;5138140;28;20050;-57
2023/08/17 08:26:18;;;;;;;13.07;5.63;;;;;;;35.78;100.00;99579.19;5137888;28;20095;-56
2023/08/17 08:28:45;;;;;;;12.18;4.40;;;;;;;35.59;93.17;99590.50;5137722;28;20051;-55
2023/08/17 08:31:11;;;;;;;10.23;4.93;;;;;;;35.82;99.13;99573.19;5138233;28;20371;-57
2023/08/17 08:33:37;;;;;;;13.80;6.05;;;;;;;35.83;99.06;99577.63;5138003;28;20188;-59
2023/08/17 08:36:05;;;;;;;7.97;4.90;;;;;;;35.00;98.76;99582.47;5138182;28;20055;-59
2023/08/17 08:38:32;;;;;;;6.53;4.25;;;;;;;35.28;100.00;99570.94;5137773;27;20115;-58
2023/08/17 08:40:59;;;;;;;8.68;4.32;;;;;;;35.23;100.00;99572.53;5138193;28;20062;-56
2023/08/17 08:43:25;;;;;;;9.75;4.28;;;;;;;35.90;96.95;99579.88;5137812;28;20220;-57
2023/08/17 08:45:51;;;;;;;11.63;4.82;;;;;;;36.39;96.31;99582.06;5138203;28;20126;-52
2023/08/17 08:48:19;;;;;;;6.88;4.38;;;;;;;35.73;97.77;99579.25;5137979;28;20135;-56
2023/08/17 08:50:46;;;;;;;17.15;5.57;;;;;;;35.31;97.02;99579.22;5137477;28;20439;-55
2023/08/17 08:53:14;;;;;;;6.47;4.30;;;;;;;35.42;100.00;99577.59;5137926;28;20137;-59
2023/08/17 08:55:47;;;;;;;9.10;4.05;;;;;;;35.22;100.00;99562.41;5137547;28;20142;-58
2023/08/17 08:58:14;;;;;;;;;;;;;;;35.79;95.66;99582.84;5138300;28;20078;-56
2023/08/17 09:00:41;;;;;;;7.68;4.35;;;;;;;36.53;89.81;99585.88;5137433;28;20008;-57
2023/08/17 09:03:07;;;;;;;6.18;3.95;;;;;;;35.70;97.11;99586.00;5137534;28;20078;-55
2023/08/17 09:05:35;;;;;;;5.55;4.20;;;;;;;36.61;92.44;99587.56;5137358;28;20097;-53
2023/08/17 09:08:04;;;;;;;6.25;4.50;;;;;;;36.94;97.54;99574.97;5136668;27;20090;-51
2023/08/17 09:10:30;;;;;;;9.50;4.88;;;;;;;36.23;89.74;99584.56;5137225;28;20087;-57
2023/08/17 09:12:56;;;;;;;8.07;4.45;;;;;;;37.00;84.93;99592.09;5137556;28;20046;-53
2023/08/17 09:15:22;;;;;;;12.80;7.68;;;;;;;37.28;89.81;99577.41;5137258;28;20419;-56
2023/08/17 09:17:49;;;;;;;10.48;5.05;;;;;;;37.32;96.27;99575.03;5137069;28;20055;-57
2023/08/17 09:20:38;;;;;;;6.47;4.07;;;;;;;36.36;96.82;99575.34;5137450;28;20062;-57
2023/08/17 09:23:04;;;;;;;6.03;4.57;;;;;;;36.29;94.64;99573.09;5137115;28;20059;-55
2023/08/17 09:25:33;;;;;;;4.95;4.07;;;;;;;36.51;92.90;99580.66;5137474;28;20051;-56
2023/08/17 09:28:02;;;;;;;8.32;4.57;;;;;;;36.02;97.64;99572.03;5136991;28;20047;-57
2023/08/17 09:30:28;;;;;;;4.70;4.20;;;;;;;35.77;100.00;99562.63;5137384;28;20400;-53
2023/08/17 09:32:54;;;;;;;5.88;4.53;;;;;;;34.53;100.00;99556.75;5136888;28;20066;-55
2023/08/17 09:35:20;;;;;;;5.10;4.03;;;;;;;35.03;98.13;99570.81;5137185;28;20059;-55
2023/08/17 09:37:48;;;;;;;11.90;5.00;;;;;;;36.34;100.00;99565.78;5136986;27;20061;-56
2023/08/17 09:40:14;;;;;;;9.35;4.60;;;;;;;35.82;99.69;99570.34;5137147;28;20142;-56
2023/08/17 09:42:40;;;;;;;8.95;4.30;;;;;;;35.76;100.00;99563.94;5136891;28;20051;-51
2023/08/17 09:45:08;;;;;;;9.00;4.45;;;;;;;35.74;100.00;99563.69;5137047;28;20149;-54
2023/08/17 09:47:35;;;;;;;12.32;4.50;;;;;;;36.36;96.02;99572.50;5137112;28;20075;-57
2023/08/17 09:50:05;;;;;;;9.18;4.50;;;;;;;35.45;97.69;99573.69;5136832;28;20052;-54
2023/08/17 09:52:39;;;;;;;8.57;4.82;;;;;;;36.31;96.60;99578.25;5137066;28;20046;-54
2023/08/17 09:55:07;;;;;;;6.97;4.22;;;;;;;36.91;89.31;99586.72;5136691;28;20063;-56
2023/08/17 09:57:36;;;;;;;8.43;4.60;;;;;;;35.88;97.22;99579.63;5137142;28;20051;-57
2023/08/17 10:00:02;;;;;;;7.75;4.50;;;;;;;35.99;95.55;99581.63;5136521;28;20047;-53
2023/08/17 10:02:29;;;;;;;6.03;4.43;;;;;;;34.85;100.00;99566.44;5136610;28;20055;-58
2023/08/17 10:05:00;;;;;;;8.82;4.93;;;;;;;35.98;97.30;99571.50;5136291;28;20138;-60
2023/08/17 10:07:31;;;;;;;10.45;4.78;;;;;;;36.09;94.79;99573.53;5136443;27;20447;-54
2023/08/17 10:10:02;;;;;;;7.80;4.55;;;;;;;35.79;93.60;99577.13;5136665;28;20137;-55
2023/08/17 10:12:36;;;;;;;12.20;5.63;;;;;;;36.92;90.98;99579.66;5136560;28;20363;-56
2023/08/17 10:15:07;;;;;;;10.75;4.43;;;;;;;37.18;95.83;99573.41;5136434;28;20066;-53
2023/08/17 10:17:44;;;;;;;6.25;4.63;;;;;;;35.74;97.73;99580.78;5136612;27;20043;-57
2023/08/17 10:20:10;;;;;;;5.95;4.47;;;;;;;35.94;92.90;99580.38;5140377;28;20537;-59
2023/08/17 10:22:45;;;;;;;7.47;5.00;;;;;;;36.66;84.52;99586.75;5139204;28;20058;-56
2023/08/17 10:25:13;;;;;;;9.68;5.00;;;;;;;35.44;97.24;99569.31;5139794;28;20413;-53
2023/08/17 10:27:42;;;;;;;6.70;4.22;;;;;;;35.10;100.00;99563.78;5139944;28;20082;-55
2023/08/17 10:30:09;;;;;;;7.45;4.65;;;;;;;36.25;95.20;99569.75;5140021;28;20070;-58
2023/08/17 10:32:35;;;;;;;8.07;4.55;;;;;;;36.28;92.82;99569.44;5140156;28;20103;-54
2023/08/17 10:35:03;;;;;;;6.05;4.10;;;;;;;36.46;86.16;99576.53;5139819;28;20067;-55
2023/08/17 10:37:30;;;;;;;9.68;4.68;;;;;;;36.57;87.73;99572.06;5140128;27;20059;-52
2023/08/17 10:39:57;;;;;;;8.73;4.60;;;;;;;35.96;93.66;99560.66;5139781;28;20047;-53
2023/08/17 10:42:33;;;;;;;8.18;4.88;;;;;;;34.67;100.00;99545.03;5140130;28;20093;-53
2023/08/17 10:45:01;;;;;;;4.72;4.32;;;;;;;35.93;97.38;99564.56;5139604;28;20435;-51
2023/08/17 10:47:29;;;;;;;8.30;4.90;;;;;;;35.48;96.99;99561.22;5140084;28;20058;-59
2023/08/17 10:49:57;;;;;;;10.75;4.65;;;;;;;35.66;96.73;99559.88;5140072;28;20059;-54
2023/08/17 10:52:27;;;;;;;11.02;4.43;;;;;;;35.92;95.74;99554.44;5139349;28;20168;-57
2023/08/17 10:54:54;;;;;;;5.18;4.55;;;;;;;35.61;100.00;99546.41;5139374;28;20066;-55
2023/08/17 10:57:33;;;;;;;8.30;4.78;;;;;;;35.75;93.36;99565.22;5139486;28;20052;-52
2023/08/17 11:00:15;;;;;;;8.00;5.10;;;;;;;35.48;96.42;99556.31;5139553;28;20051;-56
2023/08/17 11:02:45;;;;;;;7.50;4.90;;;;;;;34.97;100.00;99543.63;5139301;28;20150;-59
2023/08/17 11:05:12;;;;;;;6.43;4.65;;;;;;;34.11;100.00;99525.22;5139578;28;20423;-56
2023/08/17 11:07:43;;;;;;;10.65;5.15;;;;;;;33.65;100.00;99517.97;5139142;27;20061;-58
2023/08/17 11:10:27;;;;;;;7.07;5.00;;;;;;;33.59;100.00;99505.84;5139163;28;20047;-55
2023/08/17 11:12:56;;;;;;;12.15;5.45;;;;;;;33.69;100.00;99507.13;5139439;28;20302;-54
2023/08/17 11:15:23;;;;;;;10.57;5.68;;;;;;;33.26;100.00;99493.13;5139173;28;20054;-55